createdAt,value
2022-09-29T00:00:48.953Z,100.00
2022-09-29T00:03:18.373Z,100.00
2022-09-29T00:05:53.188Z,100.00
2022-09-29T00:08:22.506Z,100.00
2022-09-29T00:10:52.862Z,100.00
2022-09-29T00:13:21.216Z,100.00
2022-09-29T00:16:01.400Z,100.00
2022-09-29T00:18:30.242Z,100.00
2022-09-29T00:21:05.885Z,100.00
2022-09-29T00:23:34.656Z,100.00
2022-09-29T00:26:10.310Z,100.00
2022-09-29T00:28:39.566Z,100.00
2022-09-29T00:31:08.014Z,100.00
2022-09-29T00:33:36.880Z,100.00
2022-09-29T00:36:06.352Z,100.00
2022-09-29T00:38:34.692Z,100.00
2022-09-29T00:41:02.601Z,100.00
2022-09-29T00:43:51.469Z,100.00
2022-09-29T00:46:30.300Z,100.00
2022-09-29T00:49:00.168Z,100.00
2022-09-29T00:51:28.139Z,100.00
2022-09-29T00:53:56.050Z,100.00
2022-09-29T00:56:24.371Z,100.00
2022-09-29T00:58:55.744Z,100.00
2022-09-29T01:01:24.095Z,100.00
2022-09-29T01:03:53.867Z,100.00
2022-09-29T01:06:25.434Z,100.00
2022-09-29T01:08:58.437Z,100.00
2022-09-29T01:11:26.201Z,100.00
2022-09-29T01:13:55.026Z,100.00
2022-09-29T01:16:22.584Z,100.00
2022-09-29T01:18:52.299Z,100.00
2022-09-29T01:21:38.540Z,100.00
2022-09-29T01:24:24.759Z,100.00
2022-09-29T01:27:04.438Z,100.00
2022-09-29T01:29:38.069Z,100.00
2022-09-29T01:32:25.819Z,100.00
2022-09-29T01:34:53.858Z,100.00
2022-09-29T01:37:24.706Z,100.00
2022-09-29T01:39:57.567Z,100.00
2022-09-29T01:42:32.934Z,100.00
2022-09-29T01:45:05.599Z,100.00
2022-09-29T01:47:40.886Z,100.00
2022-09-29T01:50:11.964Z,100.00
2022-09-29T01:52:42.671Z,100.00
2022-09-29T01:55:17.388Z,100.00
2022-09-29T01:57:57.739Z,100.00
2022-09-29T02:00:31.821Z,100.00
2022-09-29T02:03:10.063Z,100.00
2022-09-29T02:05:37.738Z,100.00
2022-09-29T02:08:09.230Z,100.00
2022-09-29T02:11:02.885Z,100.00
2022-09-29T02:13:41.206Z,100.00
2022-09-29T02:16:16.991Z,100.00
2022-09-29T02:19:07.979Z,100.00
2022-09-29T02:21:35.399Z,100.00
2022-09-29T02:24:03.380Z,100.00
2022-09-29T02:26:36.288Z,100.00
2022-09-29T02:29:07.703Z,100.00
2022-09-29T02:31:36.635Z,100.00
2022-09-29T02:34:05.389Z,100.00
2022-09-29T02:36:51.506Z,100.00
2022-09-29T02:39:31.764Z,100.00
2022-09-29T02:42:08.498Z,100.00
2022-09-29T02:44:39.399Z,100.00
2022-09-29T02:47:15.874Z,100.00
2022-09-29T02:49:57.962Z,100.00
2022-09-29T02:52:44.771Z,100.00
2022-09-29T02:55:18.486Z,100.00
2022-09-29T02:58:10.871Z,100.00
2022-09-29T03:00:38.863Z,100.00
2022-09-29T03:03:06.424Z,100.00
2022-09-29T03:05:34.304Z,100.00
2022-09-29T03:08:02.277Z,100.00
2022-09-29T03:10:30.475Z,100.00
2022-09-29T03:12:58.081Z,100.00
2022-09-29T03:15:25.934Z,100.00
2022-09-29T03:17:57.468Z,100.00
2022-09-29T03:20:26.346Z,100.00
2022-09-29T03:22:57.878Z,100.00
2022-09-29T03:25:25.620Z,100.00
2022-09-29T03:27:53.308Z,100.00
2022-09-29T03:30:34.114Z,100.00
2022-09-29T03:33:01.576Z,100.00
2022-09-29T03:35:30.177Z,100.00
2022-09-29T03:38:00.988Z,100.00
2022-09-29T03:40:29.208Z,100.00
2022-09-29T03:42:56.723Z,100.00
2022-09-29T03:45:24.298Z,100.00
2022-09-29T03:47:52.473Z,100.00
2022-09-29T03:50:20.051Z,100.00
2022-09-29T03:52:47.535Z,100.00
2022-09-29T03:55:15.374Z,100.00
2022-09-29T03:57:42.920Z,100.00
2022-09-29T04:00:10.836Z,100.00
2022-09-29T04:02:38.840Z,100.00
2022-09-29T04:05:06.605Z,100.00
2022-09-29T04:07:34.135Z,100.00
2022-09-29T04:10:02.058Z,100.00
2022-09-29T04:12:31.147Z,100.00
2022-09-29T04:14:58.647Z,100.00
2022-09-29T04:17:26.903Z,100.00
2022-09-29T04:19:54.381Z,100.00
2022-09-29T04:22:21.913Z,100.00
2022-09-29T04:24:50.490Z,100.00
2022-09-29T04:27:21.481Z,100.00
2022-09-29T04:29:48.932Z,100.00
2022-09-29T04:32:17.045Z,100.00
2022-09-29T04:34:44.612Z,100.00
2022-09-29T04:37:12.219Z,100.00
2022-09-29T04:39:40.123Z,100.00
2022-09-29T04:42:08.010Z,100.00
2022-09-29T04:44:35.487Z,100.00
2022-09-29T04:47:03.367Z,100.00
2022-09-29T04:49:31.391Z,100.00
2022-09-29T04:51:58.891Z,100.00
2022-09-29T04:54:33.006Z,100.00
2022-09-29T04:57:04.532Z,100.00
2022-09-29T04:59:32.376Z,100.00
2022-09-29T05:02:00.313Z,100.00
2022-09-29T05:04:27.848Z,100.00
2022-09-29T05:06:55.717Z,100.00
2022-09-29T05:09:25.112Z,100.00
2022-09-29T05:11:53.042Z,100.00
2022-09-29T05:14:20.940Z,100.00
2022-09-29T05:16:48.483Z,99.56
2022-09-29T05:19:16.012Z,97.18
2022-09-29T05:21:43.840Z,93.23
2022-09-29T05:26:59.600Z,100.00
2022-09-29T05:29:27.277Z,98.51
2022-09-29T05:31:54.947Z,98.36
2022-09-29T05:34:22.992Z,96.72
2022-09-29T05:36:50.705Z,91.67
2022-09-29T05:39:21.313Z,82.53
2022-09-29T05:41:49.758Z,78.74
2022-09-29T05:44:17.302Z,78.44
2022-09-29T05:46:44.818Z,81.38
2022-09-29T05:49:12.754Z,83.77
2022-09-29T05:51:40.302Z,82.74
2022-09-29T05:54:07.868Z,82.53
2022-09-29T05:56:35.730Z,85.74
2022-09-29T05:59:03.271Z,86.60
2022-09-29T06:01:32.771Z,87.45
2022-09-29T06:04:01.119Z,85.85
2022-09-29T06:06:29.290Z,86.96
2022-09-29T06:08:57.949Z,88.80
2022-09-29T06:11:31.731Z,87.28
2022-09-29T06:13:59.233Z,83.41
2022-09-29T06:16:28.344Z,86.08
2022-09-29T06:18:56.514Z,83.80
2022-09-29T06:21:25.482Z,83.32
2022-09-29T06:23:57.426Z,85.71
2022-09-29T06:26:26.084Z,86.98
2022-09-29T06:28:54.561Z,85.85
2022-09-29T06:31:23.782Z,85.52
2022-09-29T06:33:51.462Z,85.42
2022-09-29T06:36:43.447Z,85.81
2022-09-29T06:39:12.706Z,85.05
2022-09-29T06:41:40.677Z,86.10
2022-09-29T06:44:09.393Z,83.75
2022-09-29T06:46:36.945Z,83.77
2022-09-29T06:49:04.969Z,82.64
2022-09-29T06:51:43.794Z,82.02
2022-09-29T06:54:14.578Z,85.77
2022-09-29T06:56:42.859Z,83.59
2022-09-29T06:59:10.363Z,83.85
2022-09-29T07:01:38.357Z,79.43
2022-09-29T07:04:05.979Z,81.50
2022-09-29T07:06:33.590Z,80.90
2022-09-29T07:09:01.644Z,81.14
2022-09-29T07:11:29.295Z,81.24
2022-09-29T07:13:57.148Z,82.00
2022-09-29T07:16:25.542Z,82.75
2022-09-29T07:18:53.717Z,83.27
2022-09-29T07:21:21.725Z,83.40
2022-09-29T07:23:49.809Z,82.51
2022-09-29T07:26:18.186Z,84.52
2022-09-29T07:28:46.066Z,86.36
2022-09-29T07:31:16.468Z,89.29
2022-09-29T07:33:44.784Z,90.40
2022-09-29T07:36:13.435Z,89.59
2022-09-29T07:38:41.317Z,88.39
2022-09-29T07:41:10.973Z,90.39
2022-09-29T07:43:38.871Z,88.83
2022-09-29T07:46:07.816Z,88.86
2022-09-29T07:48:36.611Z,86.41
2022-09-29T07:51:14.654Z,87.15
2022-09-29T07:53:42.739Z,85.51
2022-09-29T07:56:12.061Z,83.97
2022-09-29T07:58:39.978Z,83.50
2022-09-29T08:01:10.914Z,85.13
2022-09-29T08:03:39.697Z,85.75
2022-09-29T08:06:08.092Z,85.99
2022-09-29T08:08:37.073Z,86.35
2022-09-29T08:11:06.604Z,85.61
2022-09-29T08:13:34.928Z,86.43
2022-09-29T08:16:03.673Z,85.76
2022-09-29T08:18:31.970Z,86.58
2022-09-29T08:21:02.902Z,86.83
2022-09-29T08:23:35.344Z,84.59
2022-09-29T08:26:04.553Z,84.76
2022-09-29T08:28:33.292Z,81.73
2022-09-29T08:31:08.343Z,82.35
2022-09-29T08:33:36.852Z,80.48
2022-09-29T08:38:53.245Z,82.91
2022-09-29T08:41:26.356Z,83.37
2022-09-29T08:43:57.653Z,83.53
2022-09-29T08:46:34.366Z,82.79
2022-09-29T08:49:07.372Z,82.56
2022-09-29T08:51:42.773Z,81.51
2022-09-29T08:54:34.258Z,81.51
2022-09-29T08:57:02.977Z,82.91
2022-09-29T08:59:31.594Z,83.47
2022-09-29T09:01:59.173Z,83.87
2022-09-29T09:04:35.718Z,82.75
2022-09-29T09:07:03.588Z,84.35
2022-09-29T09:09:50.085Z,82.94
2022-09-29T09:12:17.914Z,82.27
2022-09-29T09:14:48.212Z,80.86
2022-09-29T09:17:39.111Z,81.11
2022-09-29T09:20:13.260Z,79.42
2022-09-29T09:22:59.486Z,81.15
2022-09-29T09:25:27.366Z,82.27
2022-09-29T09:28:07.002Z,79.62
2022-09-29T09:30:55.155Z,80.36
2022-09-29T09:33:32.079Z,79.71
2022-09-29T09:36:30.770Z,80.39
2022-09-29T09:39:16.183Z,79.12
2022-09-29T09:41:46.344Z,78.31
2022-09-29T09:44:23.037Z,78.80
2022-09-29T09:47:03.623Z,78.42
2022-09-29T09:49:38.328Z,79.00
2022-09-29T09:52:15.237Z,78.33
2022-09-29T09:55:03.655Z,78.46
2022-09-29T09:57:55.534Z,78.16
2022-09-29T10:00:23.162Z,80.83
2022-09-29T10:02:52.578Z,81.74
2022-09-29T10:05:21.561Z,78.43
2022-09-29T10:07:49.536Z,80.49
2022-09-29T10:10:19.426Z,81.28
2022-09-29T10:12:47.018Z,81.54
2022-09-29T10:15:26.067Z,81.89
2022-09-29T10:18:02.341Z,78.68
2022-09-29T10:20:35.089Z,81.07
2022-09-29T10:23:21.654Z,81.47
2022-09-29T10:25:58.226Z,80.93
2022-09-29T10:28:28.358Z,79.79
2022-09-29T10:30:56.103Z,77.87
2022-09-29T10:33:25.982Z,81.00
2022-09-29T10:36:04.700Z,80.31
2022-09-29T10:38:32.553Z,80.23
2022-09-29T10:41:03.604Z,82.77
2022-09-29T10:43:38.537Z,82.72
2022-09-29T10:46:26.409Z,81.10
2022-09-29T10:49:12.642Z,78.52
2022-09-29T10:51:41.497Z,79.75
2022-09-29T10:54:10.346Z,80.39
2022-09-29T10:56:46.205Z,80.02
2022-09-29T10:59:14.786Z,80.51
2022-09-29T11:01:50.695Z,79.40
2022-09-29T11:04:41.353Z,80.50
2022-09-29T11:07:13.004Z,78.93
2022-09-29T11:09:42.249Z,80.90
2022-09-29T11:12:29.685Z,80.00
2022-09-29T11:14:57.738Z,81.16
2022-09-29T11:17:27.542Z,79.89
2022-09-29T11:20:02.545Z,81.82
2022-09-29T11:22:31.484Z,83.33
2022-09-29T11:25:07.784Z,81.97
2022-09-29T11:27:43.833Z,82.38
2022-09-29T11:30:15.936Z,83.03
2022-09-29T11:33:05.419Z,81.63
2022-09-29T11:35:55.767Z,81.95
2022-09-29T11:38:49.337Z,81.29
2022-09-29T11:41:35.647Z,83.27
2022-09-29T11:44:09.508Z,84.23
2022-09-29T11:46:47.893Z,83.11
2022-09-29T11:49:18.851Z,80.02
2022-09-29T11:51:52.184Z,83.73
2022-09-29T11:54:38.308Z,81.77
2022-09-29T11:57:12.497Z,82.45
2022-09-29T11:59:48.650Z,80.43
2022-09-29T12:02:19.516Z,82.26
2022-09-29T12:05:13.847Z,82.49
2022-09-29T12:07:50.518Z,83.07
2022-09-29T12:10:25.780Z,83.53
2022-09-29T12:13:10.263Z,79.23
2022-09-29T12:15:47.531Z,83.75
2022-09-29T12:18:39.297Z,84.69
2022-09-29T12:21:10.420Z,85.18
2022-09-29T12:23:41.326Z,85.35
2022-09-29T12:26:09.520Z,86.21
2022-09-29T12:28:53.280Z,85.61
2022-09-29T12:31:26.824Z,83.11
2022-09-29T12:33:58.052Z,82.83
2022-09-29T12:36:50.625Z,85.69
2022-09-29T12:39:18.115Z,82.58
2022-09-29T12:41:49.842Z,87.12
2022-09-29T12:44:24.180Z,86.21
2022-09-29T12:46:55.227Z,85.75
2022-09-29T12:49:26.034Z,81.52
2022-09-29T12:51:54.336Z,84.61
2022-09-29T12:54:21.973Z,82.34
2022-09-29T12:56:54.371Z,84.15
2022-09-29T12:59:29.646Z,85.77
2022-09-29T13:01:58.405Z,85.64
2022-09-29T13:04:50.519Z,83.21
2022-09-29T13:07:21.137Z,85.32
2022-09-29T13:09:54.913Z,83.35
2022-09-29T13:12:48.855Z,81.28
2022-09-29T13:15:23.085Z,83.44
2022-09-29T13:18:02.877Z,82.52
2022-09-29T13:20:44.084Z,79.24
2022-09-29T13:23:12.073Z,80.99
2022-09-29T13:25:58.124Z,82.58
2022-09-29T13:28:55.042Z,82.07
2022-09-29T13:31:28.908Z,77.03
2022-09-29T13:34:02.070Z,70.30
2022-09-29T13:36:36.058Z,63.85
2022-09-29T13:39:20.628Z,59.68
2022-09-29T13:41:48.475Z,58.22
2022-09-29T13:44:18.759Z,57.10
2022-09-29T13:46:46.322Z,56.18
2022-09-29T13:49:24.025Z,57.13
2022-09-29T13:51:55.594Z,58.70
2022-09-29T13:54:42.647Z,64.86
2022-09-29T13:57:13.555Z,69.72
2022-09-29T14:00:04.802Z,73.39
2022-09-29T14:02:39.234Z,76.01
2022-09-29T14:05:27.144Z,78.00
2022-09-29T14:07:58.032Z,79.60
2022-09-29T14:10:40.159Z,80.75
2022-09-29T14:13:13.913Z,81.70
2022-09-29T14:15:50.320Z,82.75
2022-09-29T14:18:29.629Z,82.34
2022-09-29T14:21:03.603Z,84.08
2022-09-29T14:24:00.540Z,83.19
2022-09-29T14:29:34.867Z,84.94
2022-09-29T14:32:03.720Z,85.72
2022-09-29T14:34:33.322Z,85.13
2022-09-29T14:37:01.104Z,85.51
2022-09-29T14:39:30.285Z,84.29
2022-09-29T14:45:01.840Z,84.32
2022-09-29T14:50:53.309Z,84.69
2022-09-29T14:53:26.559Z,85.18
2022-09-29T14:55:58.460Z,84.73
2022-09-29T14:58:29.866Z,83.15
2022-09-29T15:01:09.666Z,82.75
2022-09-29T15:03:47.735Z,83.94
2022-09-29T15:06:22.862Z,83.60
2022-09-29T15:09:00.855Z,84.32
2022-09-29T15:11:39.131Z,84.90
2022-09-29T15:14:22.027Z,85.53
2022-09-29T15:16:57.689Z,86.44
2022-09-29T15:19:29.625Z,86.82
2022-09-29T15:22:00.572Z,86.60
2022-09-29T15:24:37.143Z,87.85
2022-09-29T15:27:06.882Z,86.73
2022-09-29T15:29:34.428Z,87.98
2022-09-29T15:32:02.502Z,87.91
2022-09-29T15:34:30.418Z,87.75
2022-09-29T15:36:58.511Z,88.77
2022-09-29T15:39:28.727Z,92.04
2022-09-29T15:42:03.763Z,91.18
2022-09-29T15:44:34.080Z,90.94
2022-09-29T15:47:01.973Z,91.22
2022-09-29T15:49:30.258Z,92.29
2022-09-29T15:52:02.523Z,90.36
2022-09-29T15:54:34.971Z,89.05
2022-09-29T15:57:21.386Z,88.94
2022-09-29T15:59:51.755Z,89.81
2022-09-29T16:02:30.802Z,89.73
2022-09-29T16:05:01.337Z,89.98
2022-09-29T16:07:32.157Z,88.97
2022-09-29T16:10:22.812Z,90.04
2022-09-29T16:12:53.215Z,90.87
2022-09-29T16:15:29.045Z,90.51
2022-09-29T16:17:57.545Z,89.63
2022-09-29T16:20:33.687Z,92.09
2022-09-29T16:23:08.582Z,90.97
2022-09-29T16:25:36.706Z,90.53
2022-09-29T16:28:07.648Z,90.65
2022-09-29T16:30:36.607Z,91.30
2022-09-29T16:33:13.600Z,90.20
2022-09-29T16:35:43.053Z,90.42
2022-09-29T16:38:16.946Z,89.28
2022-09-29T16:40:44.890Z,88.94
2022-09-29T16:43:31.652Z,89.90
2022-09-29T16:46:03.188Z,92.95
2022-09-29T16:48:32.551Z,94.06
2022-09-29T16:51:05.674Z,94.12
2022-09-29T16:53:36.365Z,96.35
2022-09-29T16:56:06.298Z,100.00
2022-09-29T16:58:33.874Z,98.63
2022-09-29T17:01:02.772Z,97.49
2022-09-29T17:03:31.292Z,96.65
2022-09-29T17:06:01.432Z,96.69
2022-09-29T17:08:31.557Z,95.57
2022-09-29T17:10:59.058Z,95.92
2022-09-29T17:13:28.947Z,95.78
2022-09-29T17:15:57.070Z,95.57
2022-09-29T17:18:27.304Z,93.75
2022-09-29T17:20:55.056Z,94.15
2022-09-29T17:23:23.022Z,95.34
2022-09-29T17:25:50.687Z,94.41
2022-09-29T17:28:24.851Z,96.51
2022-09-29T17:30:55.830Z,96.83
2022-09-29T17:33:23.979Z,94.98
2022-09-29T17:35:55.733Z,95.33
2022-09-29T17:38:24.426Z,93.02
2022-09-29T17:40:56.504Z,91.42
2022-09-29T17:43:24.891Z,91.26
2022-09-29T17:45:52.678Z,91.73
2022-09-29T17:48:20.346Z,92.74
2022-09-29T17:50:59.587Z,92.90
2022-09-29T17:56:37.526Z,94.15
2022-09-29T17:59:06.285Z,89.65
2022-09-29T18:01:35.241Z,90.63
2022-09-29T18:04:03.866Z,91.15
2022-09-29T18:06:32.943Z,91.49
2022-09-29T18:09:00.519Z,91.07
2022-09-29T18:11:28.589Z,91.53
2022-09-29T18:13:56.369Z,89.85
2022-09-29T18:16:25.199Z,91.07
2022-09-29T18:21:38.527Z,89.71
2022-09-29T18:24:06.681Z,89.79
2022-09-29T18:26:34.513Z,90.14
2022-09-29T18:29:09.390Z,92.11
2022-09-29T18:31:37.407Z,91.79
2022-09-29T18:34:04.943Z,90.45
2022-09-29T18:36:32.562Z,93.80
2022-09-29T18:39:00.424Z,92.81
2022-09-29T18:41:27.953Z,90.47
2022-09-29T18:43:58.819Z,89.80
2022-09-29T18:46:27.534Z,91.82
2022-09-29T18:48:55.000Z,90.46
2022-09-29T18:51:22.548Z,88.04
2022-09-29T18:53:50.475Z,86.88
2022-09-29T18:56:18.010Z,86.41
2022-09-29T18:58:45.502Z,86.04
2022-09-29T19:01:15.500Z,86.54
2022-09-29T19:04:01.475Z,88.59
2022-09-29T19:06:31.739Z,87.56
2022-09-29T19:08:59.357Z,87.06
2022-09-29T19:11:27.159Z,88.12
2022-09-29T19:13:56.498Z,90.80
2022-09-29T19:16:24.712Z,88.82
2022-09-29T19:18:52.494Z,88.80
2022-09-29T19:21:20.409Z,88.10
2022-09-29T19:23:48.015Z,87.18
2022-09-29T19:26:17.164Z,89.00
2022-09-29T19:28:46.114Z,86.38
2022-09-29T19:31:14.938Z,87.12
2022-09-29T19:33:43.008Z,87.46
2022-09-29T19:36:14.641Z,94.64
2022-09-29T19:38:42.537Z,97.39
2022-09-29T19:41:17.493Z,99.76
2022-09-29T19:43:46.076Z,95.79
2022-09-29T19:46:14.895Z,98.92
2022-09-29T19:48:43.634Z,100.00
2022-09-29T19:51:48.012Z,96.58
2022-09-29T19:54:19.327Z,100.00
2022-09-29T19:56:49.247Z,100.00
2022-09-29T19:59:18.212Z,100.00
2022-09-29T20:01:46.222Z,100.00
2022-09-29T20:04:14.927Z,100.00
2022-09-29T20:06:43.427Z,100.00
2022-09-29T20:09:11.505Z,100.00
2022-09-29T20:11:40.729Z,100.00
2022-09-29T20:14:09.612Z,100.00
2022-09-29T20:16:38.928Z,100.00
2022-09-29T20:19:07.763Z,100.00
2022-09-29T20:21:35.660Z,100.00
2022-09-29T20:24:03.157Z,100.00
2022-09-29T20:26:31.039Z,100.00
2022-09-29T20:29:00.622Z,100.00
2022-09-29T20:31:30.498Z,100.00
2022-09-29T20:33:58.421Z,100.00
2022-09-29T20:36:25.947Z,100.00
2022-09-29T20:38:53.577Z,100.00
2022-09-29T20:41:21.492Z,100.00
2022-09-29T20:43:51.413Z,100.00
2022-09-29T20:46:19.101Z,100.00
2022-09-29T20:48:48.979Z,100.00
2022-09-29T20:51:16.540Z,100.00
2022-09-29T20:53:45.234Z,100.00
2022-09-29T20:56:17.827Z,100.00
2022-09-29T20:58:49.894Z,100.00
2022-09-29T21:01:21.339Z,100.00
2022-09-29T21:03:58.439Z,100.00
2022-09-29T21:06:30.609Z,100.00
2022-09-29T21:08:58.938Z,100.00
2022-09-29T21:11:27.185Z,100.00
2022-09-29T21:13:57.132Z,100.00
2022-09-29T21:16:25.753Z,100.00
2022-09-29T21:18:55.451Z,100.00
2022-09-29T21:21:23.062Z,100.00
2022-09-29T21:23:50.940Z,100.00
2022-09-29T21:26:20.537Z,100.00
2022-09-29T21:28:49.917Z,100.00
2022-09-29T21:31:18.055Z,100.00
2022-09-29T21:33:50.250Z,100.00
2022-09-29T21:36:17.862Z,100.00
2022-09-29T21:38:45.729Z,100.00
2022-09-29T21:41:18.554Z,100.00
2022-09-29T21:43:46.444Z,100.00
2022-09-29T21:46:15.229Z,100.00
2022-09-29T21:48:43.288Z,100.00
2022-09-29T21:51:15.192Z,100.00
2022-09-29T21:53:43.519Z,100.00
2022-09-29T21:56:16.559Z,100.00
2022-09-29T21:58:46.244Z,100.00
2022-09-29T22:01:14.137Z,100.00
2022-09-29T22:03:43.379Z,100.00
2022-09-29T22:06:12.420Z,100.00
2022-09-29T22:08:40.559Z,100.00
2022-09-29T22:11:09.078Z,100.00
2022-09-29T22:13:37.702Z,100.00
2022-09-29T22:16:10.816Z,100.00
2022-09-29T22:18:42.054Z,100.00
2022-09-29T22:21:11.433Z,100.00
2022-09-29T22:23:49.984Z,100.00
2022-09-29T22:26:18.114Z,100.00
2022-09-29T22:28:46.934Z,100.00
2022-09-29T22:31:15.802Z,100.00
2022-09-29T22:33:44.957Z,100.00
2022-09-29T22:36:13.983Z,100.00
2022-09-29T22:38:45.922Z,99.29
2022-09-29T22:41:17.919Z,100.00
2022-09-29T22:43:45.737Z,100.00
2022-09-29T22:46:13.519Z,100.00
2022-09-29T22:48:41.593Z,100.00
2022-09-29T22:51:09.449Z,100.00
2022-09-29T22:53:38.177Z,100.00
2022-09-29T22:56:13.377Z,100.00
2022-09-29T22:58:42.077Z,100.00
2022-09-29T23:01:12.749Z,100.00
2022-09-29T23:03:41.309Z,100.00
2022-09-29T23:06:09.426Z,100.00
2022-09-29T23:08:38.096Z,100.00
2022-09-29T23:11:06.787Z,100.00
2022-09-29T23:13:37.168Z,100.00
2022-09-29T23:16:10.974Z,100.00
2022-09-29T23:18:44.819Z,100.00
2022-09-29T23:21:21.876Z,100.00
2022-09-29T23:23:54.675Z,100.00
2022-09-29T23:26:23.334Z,100.00
2022-09-29T23:28:51.037Z,100.00
2022-09-29T23:31:18.940Z,100.00
2022-09-29T23:33:51.259Z,100.00
2022-09-29T23:36:18.787Z,100.00
2022-09-29T23:39:05.014Z,100.00
2022-09-29T23:41:33.073Z,100.00
2022-09-29T23:44:05.538Z,100.00
2022-09-29T23:46:34.743Z,100.00
2022-09-29T23:49:03.204Z,100.00
2022-09-29T23:51:34.084Z,100.00
2022-09-29T23:54:01.978Z,100.00
2022-09-29T23:56:30.382Z,100.00
2022-09-29T23:58:58.113Z,100.00
